Latest Weather Observations for Hamilton

IDV60801

Issued at 3:32 pm EDT Tuesday 17 January 2017 (issued every 30 minutes, with the page automatically refreshed every 10 minutes)

About weather observations | Map of weather stations | Latest weather observations for VIC | Other Formats
Station Details ID: 090173 Name: HAMILTON AIRPORT Lat: -37.65 Lon: 142.06 Height: 241.1 m
Data from the previous 72 hours. | See also: Recent months at Hamilton
Date/Time
EDT
Temp
°C
App
Temp
°C
Dew
Point
°C
Rel
Hum
%
Delta-T
°C
Wind Press
QNH
hPa
Press
MSL
hPa
Rain since
9am
mm
Dir  Spd
km/h
Gust
km/h
Spd
kts
Gust
kts
17/03:30pm 33.0 27.7 2.9 15 15.6 W 20 26 11 14 1006.9 1006.1 0.0
17/03:00pm 33.4 28.0 2.3 14 16.0 WNW 20 28 11 15 1007.3 1006.5 0.0
17/02:30pm 33.1 26.5 2.1 14 15.8 WNW 26 37 14 20 1007.5 1006.8 0.0
17/02:00pm 33.2 26.6 2.1 14 15.9 NW 26 33 14 18 1007.8 1007.1 0.0
17/01:30pm 33.6 26.7 2.4 14 16.1 NW 28 37 15 20 1008.0 1007.3 0.0
17/01:00pm 32.4 27.4 6.6 20 14.1 NNW 22 28 12 15 1008.2 1007.5 0.0
17/12:30pm 31.1 27.3 7.5 23 13.0 NNW 17 22 9 12 1008.6 1007.9 0.0
17/12:00pm 29.9 27.2 7.2 24 12.4 WNW 11 17 6 9 1009.2 1008.5 0.0
17/11:30am 30.0 26.7 6.6 23 12.6 WNW 13 19 7 10 1009.5 1008.8 0.0
17/11:00am 29.3 25.9 7.8 26 11.8 NW 15 20 8 11 1009.8 1009.1 0.0
17/10:30am 28.4 24.5 7.1 26 11.5 NNW 17 22 9 12 1009.7 1009.0 0.0
17/10:00am 26.8 22.9 7.3 29 10.5 N 17 20 9 11 1009.8 1009.1 0.0
17/09:30am 25.3 22.3 9.2 36 8.9 NNW 15 19 8 10 1009.9 1009.2 0.0
17/09:00am 24.2 21.5 9.0 38 8.3 NNW 13 17 7 9 1010.0 1009.3 0.0
17/08:30am 22.1 20.1 10.3 47 6.5 NNW 11 13 6 7 1009.8 1009.1 0.0
17/08:00am 20.3 19.0 11.2 56 5.1 N 9 11 5 6 1009.6 1008.9 0.0
17/07:30am 18.9 17.8 10.7 59 4.5 NNW 7 11 4 6 1009.6 1008.9 0.0
17/07:00am 17.5 15.2 10.6 64 3.7 N 13 15 7 8 1009.3 1008.6 0.0
17/06:30am 16.9 15.4 10.5 66 3.4 N 9 15 5 8 1009.1 1008.4 0.0
17/06:00am 16.3 15.3 10.4 68 3.2 N 6 7 3 4 1009.2 1008.5 0.0
17/05:30am 15.9 14.9 10.4 70 2.9 N 6 7 3 4 1008.8 1008.1 0.0
17/05:00am 16.2 14.4 10.7 70 3.0 NNE 11 13 6 7 1008.9 1008.2 0.0
17/04:30am 17.2 16.3 10.8 66 3.5 ENE 6 7 3 4 1008.8 1008.1 0.0
17/04:00am 17.6 16.7 10.5 63 3.8 ENE 6 7 3 4 1008.9 1008.2 0.0
17/03:30am 17.9 16.4 10.5 62 4.0 E 9 11 5 6 1008.8 1008.1 0.0
17/03:00am 17.0 15.1 10.4 65 3.6 ESE 11 13 6 7 1009.1 1008.4 0.0
17/02:30am 18.5 17.6 10.8 61 4.2 E 6 7 3 4 1009.7 1009.0 0.0
17/02:00am 19.2 18.0 10.2 56 4.9 ESE 7 9 4 5 1009.9 1009.2 0.0
17/01:30am 18.7 17.8 10.5 59 4.5 SW 6 6 3 3 1010.2 1009.5 0.0
17/01:00am 18.2 16.7 10.6 61 4.1 WSW 9 9 5 5 1010.4 1009.7 0.0
17/12:30am 18.3 16.6 9.9 58 4.5 WSW 9 13 5 7 1010.5 1009.8 0.0
17/12:00am 19.5 17.5 10.0 54 5.2 SSE 11 13 6 7 1010.3 1009.6 0.0
 
Date/Time
EDT
Temp
°C
App
Temp
°C
Dew
Point
°C
Rel
Hum
%
Delta-T
°C
Wind Press
QNH
hPa
Press
MSL
hPa
Rain since
9am
mm
Dir  Spd
km/h
Gust
km/h
Spd
kts
Gust
kts
16/11:30pm 19.8 17.8 10.2 54 5.2 SSE 11 13 6 7 1010.5 1009.8 0.0
16/11:00pm 21.4 18.6 6.9 39 7.5 S 11 13 6 7 1010.6 1009.9 0.0
16/10:30pm 23.2 20.3 4.7 30 9.3 W 9 13 5 7 1010.7 1010.0 0.0
16/10:00pm 25.9 22.8 3.8 24 11.1 WNW 9 13 5 7 1010.6 1009.9 0.0
16/09:30pm 26.2 23.2 4.1 24 11.2 W 9 9 5 5 1010.9 1010.1 0.0
16/09:00pm 27.5 24.1 3.9 22 12.0 W 11 13 6 7 1010.7 1010.0 0.0
16/08:30pm 28.7 25.7 4.2 21 12.6 WNW 9 13 5 7 1010.5 1009.8 0.0
16/08:00pm 30.2 25.9 3.3 18 13.8 WNW 15 20 8 11 1010.3 1009.6 0.0
16/07:30pm 31.6 27.0 3.6 17 14.5 NW 17 24 9 13 1010.2 1009.5 0.0
16/07:00pm 31.3 26.6 3.4 17 14.4 NW 17 22 9 12 1010.2 1009.5 0.0
16/06:30pm 32.8 27.2 3.7 16 15.2 WNW 22 32 12 17 1010.4 1009.7 0.0
16/06:00pm 32.4 27.3 4.2 17 14.9 W 20 30 11 16 1010.7 1010.0 0.0
16/05:30pm 33.1 28.2 3.9 16 15.3 WNW 19 28 10 15 1010.9 1010.1 0.0
16/05:00pm 32.9 27.0 3.8 16 15.3 NW 24 33 13 18 1011.1 1010.4 0.0
16/04:30pm 32.3 27.4 5.0 18 14.5 WNW 20 28 11 15 1011.1 1010.4 0.0
16/04:00pm 32.2 26.3 4.1 17 14.8 NW 24 39 13 21 1011.5 1010.8 0.0
16/03:30pm 31.5 26.2 5.1 19 14.0 WNW 22 35 12 19 1011.9 1011.2 0.0
16/03:00pm 30.6 24.2 5.1 20 13.5 NW 28 41 15 22 1012.3 1011.6 0.0
16/02:30pm 30.1 23.7 5.4 21 13.1 WNW 28 41 15 22 1012.7 1012.0 0.0
16/02:00pm 30.1 24.7 4.7 20 13.3 WNW 22 33 12 18 1013.6 1012.9 0.0
16/01:30pm 29.5 23.5 3.5 19 13.3 NW 24 35 13 19 1013.8 1013.1 0.0
16/01:00pm 28.8 23.1 5.0 22 12.4 NW 24 39 13 21 1013.9 1013.2 0.0
16/12:30pm 27.9 22.6 6.6 26 11.4 WNW 24 33 13 18 1014.2 1013.5 0.0
16/12:00pm 27.3 23.0 7.7 29 10.6 NW 20 32 11 17 1014.4 1013.7 0.0
16/11:30am 26.4 21.9 8.4 32 9.8 NW 22 32 12 17 1014.7 1014.1 0.0
16/11:00am 23.8 20.1 9.4 40 7.9 NNW 19 28 10 15 1015.0 1014.4 0.0
16/10:30am 22.8 18.8 10.3 45 6.9 NNW 22 30 12 16 1015.3 1014.6 0.0
16/10:00am 21.9 18.3 10.7 49 6.2 NNW 20 28 11 15 1015.6 1014.9 0.0
16/09:30am 19.7 16.9 11.5 59 4.6 NNW 17 20 9 11 1015.8 1015.1 0.0
16/09:00am 16.9 15.6 11.2 69 3.1 NNW 9 11 5 6 1015.8 1015.1 0.0
16/08:30am 15.0 13.9 10.8 76 2.3 NE 7 9 4 5 1015.6 1014.9 0.0
16/08:00am 12.8 11.6 10.3 85 1.3 NE 7 11 4 6 1015.5 1014.8 0.0
16/07:30am 11.1 9.4 10.0 93 0.6 NE 9 11 5 6 1015.1 1014.5 0.0
16/07:00am 9.2 6.7 8.3 94 0.4 E 11 11 6 6 1015.0 1014.4 0.0
16/06:30am 8.4 5.4 7.5 94 0.4 E 13 15 7 8 1015.0 1014.4 0.0
16/06:00am 7.9 4.7 6.8 93 0.5 ESE 13 15 7 8 1015.1 1014.5 0.0
16/05:30am 8.0 4.8 6.9 93 0.5 ESE 13 15 7 8 1015.1 1014.5 0.0
16/05:00am 8.4 4.9 7.2 92 0.6 ESE 15 15 8 8 1015.0 1014.4 0.0
16/04:30am 8.9 5.5 7.7 92 0.6 ESE 15 17 8 9 1014.7 1014.1 0.0
16/04:00am 9.2 5.5 8.0 92 0.6 ESE 17 19 9 10 1014.9 1014.3 0.0
16/03:30am 9.1 5.4 7.9 92 0.6 ESE 17 19 9 10 1015.3 1014.6 0.0
16/03:00am 8.9 5.9 7.7 92 0.6 ESE 13 17 7 9 1015.5 1014.8 0.0
16/02:30am 9.3 6.0 7.9 91 0.7 ESE 15 17 8 9 1015.7 1015.0 0.0
16/02:00am 9.6 6.7 8.0 90 0.8 SE 13 17 7 9 1016.1 1015.4 0.0
16/01:30am 9.8 6.6 8.4 91 0.7 ESE 15 17 8 9 1016.2 1015.5 0.0
16/01:00am 9.8 6.9 8.1 89 0.8 SE 13 15 7 8 1016.4 1015.7 0.0
16/12:30am 10.3 7.4 8.2 87 1.0 SE 13 15 7 8 1016.8 1016.1 0.0
16/12:00am 11.6 8.5 8.8 83 1.4 SE 15 20 8 11 1017.1 1016.4 0.0
 
Date/Time
EDT
Temp
°C
App
Temp
°C
Dew
Point
°C
Rel
Hum
%
Delta-T
°C
Wind Press
QNH
hPa
Press
MSL
hPa
Rain since
9am
mm
Dir  Spd
km/h
Gust
km/h
Spd
kts
Gust
kts
15/11:30pm 12.0 8.9 9.0 82 1.5 SE 15 19 8 10 1017.4 1016.7 0.0
15/11:00pm 12.5 9.4 9.0 79 1.8 SE 15 17 8 9 1017.7 1017.0 0.0
15/10:30pm 12.9 10.3 9.2 78 1.9 SE 13 17 7 9 1017.7 1017.0 0.0
15/10:00pm 14.0 11.0 9.2 73 2.5 SE 15 19 8 10 1017.7 1017.0 0.0
15/09:30pm 15.2 11.8 9.3 68 3.1 SSE 17 20 9 11 1017.7 1017.0 0.0
15/09:00pm 16.1 12.8 9.5 65 3.5 SSE 17 20 9 11 1017.7 1017.0 0.0
15/08:30pm 18.1 15.2 9.7 58 4.5 SSE 15 20 8 11 1017.4 1016.7 0.0
15/08:00pm 19.4 15.6 9.9 54 5.1 SSE 20 24 11 13 1017.3 1016.6 0.0
15/07:30pm 20.5 16.7 9.7 50 5.8 SSE 20 28 11 15 1017.0 1016.3 0.0
15/07:00pm 21.8 18.9 9.7 46 6.6 S 15 20 8 11 1017.0 1016.3 0.0
15/06:30pm 22.0 19.1 9.5 45 6.8 SSW 15 22 8 12 1017.1 1016.4 0.0
15/06:00pm 22.0 19.0 9.2 44 6.9 S 15 22 8 12 1017.2 1016.5 0.0
15/05:30pm 22.2 19.3 9.7 45 6.8 SSW 15 28 8 15 1017.5 1016.8 0.0
15/05:00pm 22.4 19.6 9.9 45 6.9 SSW 15 24 8 13 1017.8 1017.1 0.0
15/04:30pm 22.4 19.1 9.6 44 7.0 SSW 17 28 9 15 1017.9 1017.2 0.0
15/04:00pm 22.5 19.6 9.6 44 7.0 SW 15 24 8 13 1018.1 1017.4 0.0
15/03:30pm 22.2 19.6 9.4 44 7.0 S 13 22 7 12 1018.1 1017.4 0.0
15/03:00pm 22.9 20.0 9.7 43 7.2 SW 15 26 8 14 1018.4 1017.8 0.0
15/02:30pm 21.3 18.2 8.9 45 6.6 SW 15 22 8 12 1018.7 1018.1 0.0
15/02:00pm 21.5 18.4 8.7 44 6.8 SW 15 28 8 15 1018.9 1018.3 0.0
15/01:30pm 21.0 17.9 8.9 46 6.5 SW 15 22 8 12 1019.1 1018.5 0.0
15/01:00pm 19.9 16.3 8.3 47 6.1 SSW 17 28 9 15 1019.2 1018.6 0.0
15/12:30pm 19.4 16.4 7.8 47 6.0 SW 13 24 7 13 1019.4 1018.8 0.0
15/12:00pm 18.3 16.1 7.7 50 5.4 WSW 9 17 5 9 1019.7 1019.0 0.0
15/11:30am 17.8 15.6 7.8 52 5.1 WSW 9 22 5 12 1019.9 1019.2 0.0
15/11:00am 16.5 13.5 7.7 56 4.5 SW 13 28 7 15 1020.0 1019.3 0.0
15/10:30am 16.0 13.0 7.5 57 4.3 WSW 13 22 7 12 1020.2 1019.5 0.0
15/10:00am 15.5 13.2 7.5 59 4.0 S 9 17 5 9 1020.1 1019.4 0.0
15/09:30am 14.7 12.8 7.5 62 3.6 SSW 7 15 4 8 1020.0 1019.3 0.0
15/09:00am 14.2 12.2 7.3 63 3.4 SSW 7 11 4 6 1020.0 1019.3 0.0
15/08:30am 14.0 11.0 7.5 65 3.2 S 13 19 7 10 1019.9 1019.2 0.0
15/08:00am 13.5 10.7 7.1 65 3.1 SSW 11 17 6 9 1019.3 1018.7 0.0
15/07:30am 12.9 11.2 7.4 69 2.7 SSE 6 6 3 3 1019.0 1018.4 0.0
15/07:00am 12.7 10.0 7.4 70 2.6 S 11 15 6 8 1018.8 1018.2 0.0
15/06:30am 12.6 10.3 7.5 71 2.5 SSW 9 11 5 6 1018.6 1018.0 0.0
15/06:00am 12.6 9.1 7.3 70 2.6 SSW 15 20 8 11 1018.3 1017.7 0.0
15/05:30am 12.5 9.4 7.4 71 2.5 SW 13 17 7 9 1018.1 1017.4 0.0
15/05:00am 12.5 9.0 7.4 71 2.5 S 15 20 8 11 1018.0 1017.3 0.0
15/04:30am 12.6 8.8 7.5 71 2.5 SSW 17 19 9 10 1017.9 1017.2 0.0
15/04:00am 12.6 8.7 7.3 70 2.6 SSW 17 20 9 11 1017.7 1017.0 0.0
15/03:30am 12.6 8.7 7.3 70 2.6 S 17 22 9 12 1017.3 1016.6 0.0
15/03:00am 12.8 8.4 7.3 69 2.7 SSW 20 26 11 14 1017.5 1016.8 0.0
15/02:30am 13.0 8.9 7.9 71 2.5 SSW 19 26 10 14 1017.7 1017.0 0.0
15/02:00am 13.0 9.2 7.7 70 2.6 SSW 17 28 9 15 1018.0 1017.3 0.0
15/01:30am 13.0 9.3 8.1 72 2.5 SSW 17 24 9 13 1018.1 1017.4 0.0
15/01:00am 13.0 10.2 8.7 75 2.2 SW 13 17 7 9 1018.0 1017.3 0.0
15/12:30am 12.9 10.5 8.8 76 2.1 SW 11 13 6 7 1018.0 1017.3 0.0
15/12:00am 12.6 10.6 8.5 76 2.1 SW 9 13 5 7 1018.1 1017.4 0.0
 
Date/Time
EDT
Temp
°C
App
Temp
°C
Dew
Point
°C
Rel
Hum
%
Delta-T
°C
Wind Press
QNH
hPa
Press
MSL
hPa
Rain since
9am
mm
Dir  Spd
km/h
Gust
km/h
Spd
kts
Gust
kts
14/11:30pm 11.3 8.7 7.8 79 1.7 SW 11 13 6 7 1018.0 1017.3 0.0
14/11:00pm 12.4 8.7 7.9 74 2.2 SW 17 22 9 12 1018.0 1017.3 0.0
14/10:30pm 13.0 9.3 7.9 71 2.5 SSW 17 22 9 12 1017.9 1017.2 0.0
14/10:00pm 12.5 8.7 7.4 71 2.5 SSW 17 22 9 12 1017.6 1016.9 0.0
14/09:30pm 13.1 8.9 7.5 69 2.8 SW 19 22 10 12 1017.2 1016.5 0.0
14/09:00pm 13.9 9.7 8.1 68 2.9 SSW 20 28 11 15 1016.9 1016.2 0.0
14/08:30pm 15.1 10.2 8.3 64 3.5 SSW 24 33 13 18 1016.6 1015.9 0.0
14/08:00pm 16.3 11.4 8.3 59 4.1 SW 24 33 13 18 1016.3 1015.6 0.0
14/07:30pm 17.9 12.9 8.2 53 5.0 SW 24 33 13 18 1015.8 1015.1 0.0
14/07:00pm 18.0 12.8 8.8 55 4.8 SW 26 35 14 19 1015.5 1014.8 0.0
14/06:30pm 19.2 12.7 8.2 49 5.7 WSW 32 41 17 22 1015.1 1014.5 0.0
14/06:00pm 18.8 12.9 9.0 53 5.2 SW 30 43 16 23 1015.0 1014.4 0.0
14/05:30pm 18.6 12.4 9.4 55 4.9 SW 32 39 17 21 1014.8 1014.2 0.0
14/05:00pm 19.2 13.7 9.1 52 5.4 SW 28 37 15 20 1014.5 1013.8 0.0
14/04:30pm 19.1 13.3 8.1 49 5.7 SW 28 44 15 24 1014.4 1013.7 0.0
14/04:00pm 20.2 13.9 8.8 48 6.1 WSW 32 41 17 22 1014.2 1013.5 0.0

Other Formats:

Comma delimited format used in spreadsheet applications
http://www.bom.gov.au/fwo/IDV60801/IDV60801.94829.axf

JavaScript Object Notation format (JSON) in row-major order
http://www.bom.gov.au/fwo/IDV60801/IDV60801.94829.json